Time;durP1;ratioP1;P1;durP2;ratioP2;P2;SDS_P1;SDS_P2;PMS_P1;PMS_P2;Temp;Humidity;BMP_temperature;BMP_pressure;BME280_temperature;BME280_humidity;BME280_pressure;Samples;Min_cycle;Max_cycle;Signal;HPM_P1;HPM_P2
2021/11/16 00:01:20;;;;;;;43.65;22.35;;;;;;;5.42;86.80;102216.69;5050903;28;20221;-75
2021/11/16 00:03:46;;;;;;;44.90;22.58;;;;;;;5.38;86.34;102215.22;5081884;28;20070;-74
2021/11/16 00:06:11;;;;;;;47.90;25.13;;;;;;;5.36;86.88;102214.50;5049386;28;20036;-74
2021/11/16 00:08:37;;;;;;;65.70;32.92;;;;;;;5.43;86.61;102220.94;5042386;28;20037;-74
2021/11/16 00:11:04;;;;;;;48.83;23.80;;;;;;;5.42;86.09;102220.09;5042478;28;20037;-74
2021/11/16 00:13:29;;;;;;;45.20;21.10;;;;;;;5.37;86.88;102205.84;5056635;28;20407;-73
2021/11/16 00:15:55;;;;;;;47.13;24.13;;;;;;;5.35;86.96;102216.25;5065199;28;20037;-74
2021/11/16 00:18:26;;;;;;;45.35;22.60;;;;;;;5.38;87.13;102213.47;5063591;28;20106;-73
2021/11/16 00:20:52;;;;;;;49.17;23.08;;;;;;;5.37;87.40;102218.69;5036243;28;20502;-74
2021/11/16 00:23:19;;;;;;;50.47;23.80;;;;;;;5.35;87.29;102213.66;5056634;28;20078;-74
2021/11/16 00:25:47;;;;;;;49.78;24.63;;;;;;;5.34;87.31;102213.75;5048129;28;20036;-73
2021/11/16 00:28:13;;;;;;;47.10;22.10;;;;;;;5.33;87.60;102202.63;5060905;28;20123;-75
2021/11/16 00:30:40;;;;;;;47.03;22.58;;;;;;;5.34;87.49;102208.59;5072754;28;20429;-73
2021/11/16 00:33:06;;;;;;;42.03;20.45;;;;;;;5.49;85.00;102201.75;5045568;28;20078;-76
2021/11/16 00:35:37;;;;;;;37.60;18.92;;;;;;;5.38;84.81;102210.09;5063056;28;20276;-74
2021/11/16 00:38:04;;;;;;;40.97;20.05;;;;;;;5.35;85.88;102205.09;5068258;28;20028;-74
2021/11/16 00:40:30;;;;;;;44.38;21.27;;;;;;;5.47;85.38;102194.13;5049466;28;20039;-74
2021/11/16 00:42:55;;;;;;;47.13;22.40;;;;;;;5.64;84.00;102199.09;5060272;28;20032;-73
2021/11/16 00:45:21;;;;;;;42.30;21.83;;;;;;;5.45;85.02;102196.78;5067455;28;20024;-74
2021/11/16 00:47:46;;;;;;;46.53;22.35;;;;;;;5.41;85.06;102191.91;5048647;28;20488;-73
2021/11/16 00:50:15;;;;;;;45.70;22.52;;;;;;;5.45;85.23;102189.06;5052008;28;20143;-74
2021/11/16 00:52:43;;;;;;;48.38;23.83;;;;;;;5.44;85.58;102192.56;5049487;28;20457;-74
2021/11/16 00:55:09;;;;;;;47.20;23.88;;;;;;;5.34;86.28;102190.59;5059955;28;20025;-74
2021/11/16 00:57:34;;;;;;;40.58;21.85;;;;;;;5.30;87.10;102187.38;5040859;28;20414;-74
2021/11/16 01:00:00;;;;;;;47.25;23.23;;;;;;;5.31;86.86;102185.63;5045017;28;20104;-75
2021/11/16 01:02:25;;;;;;;45.60;22.15;;;;;;;5.31;86.85;102185.63;5042753;28;20033;-73
2021/11/16 01:04:52;;;;;;;51.28;24.25;;;;;;;5.33;87.23;102181.22;5064133;28;20032;-74
2021/11/16 01:07:19;;;;;;;47.33;23.90;;;;;;;5.34;86.83;102180.31;5056932;28;20044;-74
2021/11/16 01:09:45;;;;;;;45.55;23.85;;;;;;;5.28;87.15;102173.78;5042473;28;20029;-75
2021/11/16 01:12:12;;;;;;;42.78;22.13;;;;;;;5.26;87.21;102184.16;5032841;28;20120;-74
2021/11/16 01:14:38;;;;;;;45.58;23.25;;;;;;;5.24;87.96;102185.16;5048633;28;20028;-74
2021/11/16 01:17:04;;;;;;;46.83;23.75;;;;;;;5.26;87.41;102191.84;5035870;28;20039;-73
2021/11/16 01:19:29;;;;;;;46.25;22.80;;;;;;;5.28;87.83;102191.78;5044292;28;20040;-74
2021/11/16 01:21:55;;;;;;;45.45;22.88;;;;;;;5.31;88.07;102195.91;5043958;28;20044;-74
2021/11/16 01:24:21;;;;;;;48.20;25.13;;;;;;;5.31;88.17;102195.91;5059596;28;20048;-73
2021/11/16 01:26:47;;;;;;;43.08;22.27;;;;;;;5.29;88.20;102188.28;5042358;28;20033;-74
2021/11/16 01:29:13;;;;;;;44.60;23.40;;;;;;;5.30;87.25;102187.38;5043484;28;20025;-75
2021/11/16 01:31:39;;;;;;;47.58;24.05;;;;;;;5.35;86.88;102179.38;5059436;28;20101;-74
2021/11/16 01:34:07;;;;;;;53.20;24.50;;;;;;;5.32;86.99;102177.81;5039282;28;20029;-74
2021/11/16 01:36:33;;;;;;;49.58;23.73;;;;;;;5.31;87.04;102180.47;5059537;28;20025;-73
2021/11/16 01:38:59;;;;;;;49.25;23.58;;;;;;;5.32;87.65;102172.66;5048178;28;20028;-73
2021/11/16 01:41:30;;;;;;;44.95;23.45;;;;;;;5.30;87.74;102178.84;5067739;28;20441;-74
2021/11/16 01:43:57;;;;;;;49.03;24.40;;;;;;;5.31;87.50;102177.91;5060320;28;21149;-73
2021/11/16 01:46:22;;;;;;;52.42;24.08;;;;;;;5.29;87.57;102177.97;5055735;28;20036;-73
2021/11/16 01:48:55;;;;;;;44.28;22.80;;;;;;;5.29;87.56;102172.03;5047656;28;20029;-74
2021/11/16 01:51:22;;;;;;;;;;;;;;;5.29;87.82;102175.41;5059898;28;20108;-76
2021/11/16 01:53:51;;;;;;;48.40;22.83;;;;;;;5.31;87.78;102177.91;5045086;28;19917;-74
2021/11/16 01:56:17;;;;;;;40.00;21.92;;;;;;;5.32;88.09;102172.66;5064963;28;20040;-73
2021/11/16 01:58:43;;;;;;;46.25;24.17;;;;;;;5.34;88.00;102167.44;5056801;28;20526;-74
2021/11/16 02:01:09;;;;;;;41.55;22.20;;;;;;;5.32;87.23;102170.09;5046778;28;20043;-74
2021/11/16 02:03:34;;;;;;;47.40;22.40;;;;;;;5.32;87.45;102162.38;5049083;28;20033;-74
2021/11/16 02:06:17;;;;;;;42.40;21.00;;;;;;;5.34;87.65;102159.72;5045793;28;20035;-73
2021/11/16 02:08:43;;;;;;;41.60;21.10;;;;;;;5.30;87.27;102150.53;5033712;28;20029;-74
2021/11/16 02:11:08;;;;;;;41.80;22.25;;;;;;;5.32;87.50;102146.13;5056366;28;20341;-74
2021/11/16 02:13:33;;;;;;;44.63;22.13;;;;;;;5.32;87.39;102152.09;5048645;28;20028;-74
2021/11/16 02:16:00;;;;;;;46.95;22.38;;;;;;;5.32;88.00;102146.13;5067294;28;20325;-73
2021/11/16 02:18:25;;;;;;;43.53;22.73;;;;;;;5.30;87.62;102141.06;5050898;28;20099;-74
2021/11/16 02:20:51;;;;;;;40.88;21.65;;;;;;;5.31;88.28;102144.47;5051136;28;20058;-74
2021/11/16 02:23:17;;;;;;;45.92;23.23;;;;;;;5.36;87.72;102139.88;5073914;28;20028;-73
2021/11/16 02:25:45;;;;;;;49.40;23.58;;;;;;;5.38;87.21;102145.75;5052029;28;20104;-74
2021/11/16 02:28:10;;;;;;;46.63;22.15;;;;;;;5.35;87.63;102135.66;5082901;28;20448;-74
2021/11/16 02:30:36;;;;;;;45.70;22.50;;;;;;;5.31;87.76;102135.00;5050530;28;20033;-73
2021/11/16 02:33:02;;;;;;;44.08;23.10;;;;;;;5.30;88.06;102143.66;5062307;28;20048;-75
2021/11/16 02:35:28;;;;;;;43.70;22.63;;;;;;;5.30;88.02;102135.09;5077433;28;20572;-74
2021/11/16 02:37:55;;;;;;;46.95;23.52;;;;;;;5.31;87.90;102139.31;5030065;28;20033;-76
2021/11/16 02:40:22;;;;;;;51.22;24.58;;;;;;;5.27;88.19;102138.66;5050275;28;20032;-74
2021/11/16 02:42:48;;;;;;;42.55;22.13;;;;;;;5.29;88.03;102133.44;5066929;28;20116;-74
2021/11/16 02:45:17;;;;;;;49.88;24.80;;;;;;;5.32;87.87;102133.28;5069992;28;20103;-75
2021/11/16 02:47:43;;;;;;;44.63;22.13;;;;;;;5.29;87.58;102125.72;5051280;28;20081;-74
2021/11/16 02:50:09;;;;;;;48.42;24.95;;;;;;;5.28;87.92;102122.31;5058034;28;20033;-75
2021/11/16 02:52:36;;;;;;;43.78;22.40;;;;;;;5.44;86.73;102119.69;5051783;28;20513;-73
2021/11/16 02:55:04;;;;;;;43.33;23.38;;;;;;;5.36;86.46;102121.88;5063338;28;20039;-73
2021/11/16 02:57:29;;;;;;;46.45;24.10;;;;;;;5.39;87.18;102119.97;5069401;28;20500;-74
2021/11/16 02:59:55;;;;;;;45.15;24.27;;;;;;;5.29;86.51;102121.41;5051308;28;20037;-74
2021/11/16 03:02:21;;;;;;;46.47;24.33;;;;;;;5.28;87.03;102118.94;5047242;28;20029;-74
2021/11/16 03:04:46;;;;;;;47.42;23.92;;;;;;;5.26;87.48;102127.56;5034937;28;20031;-74
2021/11/16 03:07:30;;;;;;;45.17;24.08;;;;;;;5.29;87.14;102128.28;5045499;28;20024;-74
2021/11/16 03:09:56;;;;;;;43.25;23.17;;;;;;;5.32;86.99;102130.69;5051016;28;20037;-74
2021/11/16 03:12:25;;;;;;;45.88;24.35;;;;;;;5.30;87.26;102122.25;5066798;28;20027;-73
2021/11/16 03:14:50;;;;;;;47.60;23.75;;;;;;;5.28;87.40;102118.94;5052437;28;20063;-74
2021/11/16 03:17:16;;;;;;;46.58;24.20;;;;;;;5.28;88.04;102122.31;5051100;28;20021;-74
2021/11/16 03:19:41;;;;;;;46.28;23.95;;;;;;;5.27;87.62;102112.94;5068117;28;20099;-74
2021/11/16 03:22:07;;;;;;;46.30;23.85;;;;;;;5.26;88.00;102122.41;5057892;28;20399;-73
2021/11/16 03:24:35;;;;;;;46.97;23.70;;;;;;;5.28;88.22;102118.94;5067296;28;20024;-74
2021/11/16 03:27:04;;;;;;;47.67;24.55;;;;;;;5.28;87.76;102121.50;5037034;28;20495;-74
2021/11/16 03:29:32;;;;;;;43.35;23.38;;;;;;;5.28;88.25;102121.50;5061656;28;20017;-74
2021/11/16 03:32:09;;;;;;;41.88;22.05;;;;;;;5.29;88.46;102125.72;5056775;28;20040;-73
2021/11/16 03:34:35;;;;;;;50.50;24.70;;;;;;;5.31;88.51;102118.75;5041669;28;20047;-74
2021/11/16 03:37:02;;;;;;;45.15;23.50;;;;;;;5.32;87.91;102121.22;5028260;28;20119;-75
2021/11/16 03:39:28;;;;;;;43.33;22.67;;;;;;;5.30;88.42;102119.69;5051224;28;20036;-73
2021/11/16 03:41:54;;;;;;;46.58;23.38;;;;;;;5.30;88.37;102114.53;5063224;28;20031;-74
2021/11/16 03:44:20;;;;;;;43.40;24.33;;;;;;;5.30;88.29;102117.09;5056969;28;20029;-74
2021/11/16 03:46:45;;;;;;;43.88;23.75;;;;;;;5.28;88.87;102113.78;5043052;28;20037;-75
2021/11/16 03:49:12;;;;;;;52.03;25.83;;;;;;;5.29;88.89;102112.88;5061423;28;20036;-75
2021/11/16 03:51:40;;;;;;;49.05;24.42;;;;;;;5.29;88.99;102105.16;5066005;28;20091;-73
2021/11/16 03:54:07;;;;;;;46.70;24.45;;;;;;;5.29;88.80;102105.97;5063647;28;20037;-74
2021/11/16 03:56:33;;;;;;;43.53;23.48;;;;;;;5.31;88.82;102105.88;5063031;28;20028;-75
2021/11/16 03:58:58;;;;;;;47.20;24.50;;;;;;;5.32;88.90;102104.97;5048088;28;20654;-73
2021/11/16 04:01:24;;;;;;;45.42;23.23;;;;;;;5.33;89.17;102109.19;5054191;28;20040;-74
2021/11/16 04:03:49;;;;;;;46.00;23.25;;;;;;;5.33;89.15;102111.75;5065401;28;20722;-74
2021/11/16 04:06:16;;;;;;;45.55;23.45;;;;;;;5.34;88.77;102113.44;5044582;28;20291;-73
2021/11/16 04:08:42;;;;;;;57.78;26.45;;;;;;;5.34;89.52;102118.56;5072610;28;20109;-73
2021/11/16 04:11:08;;;;;;;59.38;27.95;;;;;;;5.34;89.24;102110.84;5048860;28;20034;-76
2021/11/16 04:13:35;;;;;;;72.60;30.15;;;;;;;5.35;89.37;102110.78;5066945;28;20086;-73
2021/11/16 04:16:02;;;;;;;87.95;36.17;;;;;;;5.35;89.45;102107.34;5044983;28;20478;-73
2021/11/16 04:18:27;;;;;;;79.65;33.78;;;;;;;5.35;89.36;102115.91;5038788;28;20028;-75
2021/11/16 04:20:55;;;;;;;76.90;34.38;;;;;;;5.35;89.69;102105.63;5063145;28;20082;-73
2021/11/16 04:23:22;;;;;;;80.28;33.50;;;;;;;5.35;89.86;102110.78;5047019;28;20038;-74
2021/11/16 04:25:49;;;;;;;61.65;27.80;;;;;;;5.35;89.94;102108.19;5062315;28;20021;-74
2021/11/16 04:28:15;;;;;;;50.58;24.50;;;;;;;5.34;90.24;102118.56;5063509;28;20028;-74
2021/11/16 04:30:42;;;;;;;53.60;25.33;;;;;;;5.34;90.00;102110.84;5046679;28;20041;-74
2021/11/16 04:33:09;;;;;;;66.20;27.63;;;;;;;5.33;89.97;102106.63;5052004;28;20486;-74
2021/11/16 04:35:35;;;;;;;116.00;41.83;;;;;;;5.33;90.64;102102.31;5050022;28;20052;-75
2021/11/16 04:38:03;;;;;;;167.95;55.63;;;;;;;5.34;90.04;102106.53;5040904;28;20037;-74
2021/11/16 04:40:33;;;;;;;160.65;56.85;;;;;;;5.34;90.44;102103.13;5034124;28;20471;-74
2021/11/16 04:43:03;;;;;;;138.30;51.60;;;;;;;5.34;90.61;102098.81;5048398;28;20090;-74
2021/11/16 04:45:29;;;;;;;93.75;38.33;;;;;;;5.34;90.38;102101.38;5049843;28;20024;-74
2021/11/16 04:47:59;;;;;;;66.88;30.33;;;;;;;5.33;90.62;102098.91;5046929;28;20372;-74
2021/11/16 04:50:41;;;;;;;53.38;26.63;;;;;;;5.31;90.44;102105.88;5050954;28;20020;-74
2021/11/16 04:59:32;;;;;;;50.35;25.05;;;;;;;5.30;90.68;102102.50;5065915;28;20024;-74
2021/11/16 05:04:12;;;;;;;58.65;28.58;;;;;;;5.26;90.77;102101.84;5066680;28;20511;-73
2021/11/16 05:06:37;;;;;;;64.60;32.30;;;;;;;5.28;91.03;102103.50;5067226;28;20024;-74
2021/11/16 05:09:03;;;;;;;67.90;33.50;;;;;;;5.27;90.59;102100.09;5056872;28;20068;-74
2021/11/16 05:11:29;;;;;;;62.63;31.67;;;;;;;5.28;90.66;102106.91;5060031;28;20536;-73
2021/11/16 05:13:55;;;;;;;60.08;29.35;;;;;;;5.26;90.79;102106.16;5064875;28;20491;-74
2021/11/16 05:16:23;;;;;;;55.90;28.80;;;;;;;5.22;91.43;102108.09;5049926;28;20162;-75
2021/11/16 05:18:49;;;;;;;58.15;26.73;;;;;;;5.21;90.82;102108.97;5048420;28;20471;-75
2021/11/16 05:21:16;;;;;;;58.78;28.98;;;;;;;5.18;91.22;102106.59;5044556;28;20036;-75
2021/11/16 05:23:57;;;;;;;57.90;28.05;;;;;;;5.18;91.08;102101.47;5045121;28;20032;-74
2021/11/16 05:26:24;;;;;;;59.20;28.35;;;;;;;5.20;91.50;102111.66;5040010;28;20115;-73
2021/11/16 05:28:50;;;;;;;63.83;29.10;;;;;;;5.20;91.53;102109.09;5048766;28;20055;-74
2021/11/16 05:31:17;;;;;;;59.85;28.70;;;;;;;5.20;91.23;102115.06;5068653;28;20032;-74
2021/11/16 05:33:44;;;;;;;61.75;29.13;;;;;;;5.23;92.12;102106.31;5066597;28;20044;-74
2021/11/16 05:36:10;;;;;;;56.80;27.98;;;;;;;5.19;91.84;102110.81;5063423;28;20094;-73
2021/11/16 05:38:38;;;;;;;72.68;29.05;;;;;;;5.21;91.19;102103.03;5068155;28;20041;-74
2021/11/16 05:41:06;;;;;;;56.40;27.23;;;;;;;5.19;91.44;102105.69;5067086;28;20393;-74
2021/11/16 05:43:32;;;;;;;53.03;25.88;;;;;;;5.19;91.89;102103.09;5026025;28;20444;-74
2021/11/16 05:45:58;;;;;;;52.75;26.42;;;;;;;5.20;91.54;102109.91;5056979;28;20029;-75
2021/11/16 05:48:24;;;;;;;50.70;25.98;;;;;;;5.22;92.20;102117.56;5061611;28;20059;-75
2021/11/16 05:50:51;;;;;;;64.40;28.00;;;;;;;5.23;91.64;102117.44;5062107;28;20060;-74
2021/11/16 05:53:18;;;;;;;61.95;27.88;;;;;;;5.22;92.00;102123.50;5065371;28;20044;-74
2021/11/16 05:55:45;;;;;;;66.70;31.00;;;;;;;5.23;91.90;102119.19;5064800;28;20085;-76
2021/11/16 05:58:15;;;;;;;66.55;30.80;;;;;;;5.20;91.86;102116.81;5047412;28;20025;-73
2021/11/16 06:00:41;;;;;;;69.50;32.78;;;;;;;5.19;91.69;102115.16;5067093;28;20093;-74
2021/11/16 06:03:06;;;;;;;65.35;30.17;;;;;;;5.20;91.33;102114.25;5044425;28;20040;-74
2021/11/16 06:05:32;;;;;;;71.85;31.13;;;;;;;5.15;90.87;102117.06;5049335;28;20082;-74
2021/11/16 06:07:57;;;;;;;68.90;32.08;;;;;;;5.11;90.95;102115.59;5047056;28;20048;-75
2021/11/16 06:10:23;;;;;;;69.65;31.15;;;;;;;5.14;90.85;102123.13;5044365;28;20033;-74
2021/11/16 06:12:49;;;;;;;69.00;31.08;;;;;;;5.14;90.89;102112.00;5063207;28;20039;-74
2021/11/16 06:15:15;;;;;;;67.15;30.33;;;;;;;5.12;90.52;102116.41;5043474;28;20036;-73
2021/11/16 06:17:44;;;;;;;69.88;31.52;;;;;;;5.12;91.30;102118.97;5049222;28;20028;-74
2021/11/16 06:20:12;;;;;;;70.47;30.73;;;;;;;5.13;91.19;102121.47;5064753;28;20033;-74
2021/11/16 06:22:38;;;;;;;66.38;30.17;;;;;;;5.17;91.70;102115.22;5064915;28;20109;-74
2021/11/16 06:25:04;;;;;;;67.57;32.05;;;;;;;5.12;91.49;102124.94;5052722;28;20486;-73
2021/11/16 06:27:29;;;;;;;69.82;33.03;;;;;;;5.11;91.62;102125.88;5047212;28;20098;-73
2021/11/16 06:29:55;;;;;;;70.10;32.30;;;;;;;5.07;91.76;102126.97;5050277;28;20025;-74
2021/11/16 06:32:20;;;;;;;73.40;31.58;;;;;;;5.06;92.40;102126.13;5049426;28;20363;-74
2021/11/16 06:34:46;;;;;;;70.95;32.38;;;;;;;5.09;91.64;102125.13;5069023;28;20115;-75
2021/11/16 06:37:11;;;;;;;67.97;29.77;;;;;;;5.11;91.42;102125.88;5060300;28;20430;-74
2021/11/16 06:39:37;;;;;;;75.93;33.35;;;;;;;5.11;91.73;102132.78;5049943;28;20052;-74
2021/11/16 06:42:03;;;;;;;68.65;30.25;;;;;;;5.14;92.53;102137.72;5051055;28;20031;-74
2021/11/16 06:44:29;;;;;;;72.13;31.83;;;;;;;5.12;92.14;102139.56;5052026;28;20044;-73
2021/11/16 06:46:56;;;;;;;73.03;33.08;;;;;;;5.15;92.46;102139.38;5051194;28;20042;-74
2021/11/16 06:49:22;;;;;;;75.03;34.03;;;;;;;5.14;92.49;102130.00;5058633;28;20032;-74
2021/11/16 06:51:51;;;;;;;72.45;32.38;;;;;;;5.12;92.94;102132.66;5033718;28;20028;-74
2021/11/16 06:54:19;;;;;;;86.15;41.83;;;;;;;5.09;92.57;102134.59;5065070;28;20128;-75
2021/11/16 06:56:48;;;;;;;77.90;36.38;;;;;;;5.15;92.77;102137.63;5050287;28;20032;-74
2021/11/16 06:59:18;;;;;;;73.47;32.58;;;;;;;5.06;92.29;102133.00;5050134;28;20031;-74
2021/11/16 07:01:45;;;;;;;73.68;32.15;;;;;;;5.06;92.63;102130.44;5064061;28;20029;-74
2021/11/16 07:04:11;;;;;;;74.15;33.17;;;;;;;5.09;92.54;102138.00;5082201;28;20025;-74
2021/11/16 07:06:43;;;;;;;77.70;33.58;;;;;;;5.13;92.74;102126.59;5048694;28;20043;-74
2021/11/16 07:09:13;;;;;;;75.53;32.20;;;;;;;5.11;92.66;102132.78;5056475;28;20024;-75
2021/11/16 07:11:57;;;;;;;74.93;32.85;;;;;;;5.08;92.96;102131.19;5054680;28;20021;-74
2021/11/16 07:14:26;;;;;;;74.45;32.90;;;;;;;5.04;92.92;102129.72;5056741;28;20025;-74
2021/11/16 07:16:54;;;;;;;76.30;31.90;;;;;;;5.04;92.60;102134.84;5035058;28;20294;-74
2021/11/16 07:19:29;;;;;;;77.28;34.13;;;;;;;5.03;92.47;102143.50;5065628;28;20525;-74
2021/11/16 07:21:56;;;;;;;68.60;31.73;;;;;;;5.00;92.56;102143.66;5066830;28;20522;-74
2021/11/16 07:24:27;;;;;;;83.28;33.70;;;;;;;5.06;92.96;102146.69;5055902;28;20039;-74
2021/11/16 07:27:06;;;;;;;75.18;31.73;;;;;;;5.03;93.30;102146.06;5039207;28;20498;-74
2021/11/16 07:29:49;;;;;;;78.95;33.35;;;;;;;5.03;92.81;102153.78;5062346;28;20510;-74
2021/11/16 07:32:27;;;;;;;83.47;35.08;;;;;;;5.01;93.04;102147.88;5037748;28;20127;-74
2021/11/16 07:35:02;;;;;;;82.70;33.28;;;;;;;4.96;92.89;102143.00;5033476;28;20559;-74
2021/11/16 07:37:31;;;;;;;81.07;33.30;;;;;;;4.94;93.15;102146.59;5064575;28;20036;-74
2021/11/16 07:39:58;;;;;;;82.07;33.67;;;;;;;4.97;93.55;102148.97;5065327;28;20123;-74
2021/11/16 07:42:26;;;;;;;75.97;31.42;;;;;;;4.93;93.62;102148.31;5057792;28;20021;-75
2021/11/16 07:45:18;;;;;;;79.97;33.08;;;;;;;4.92;93.63;102156.13;5065225;28;20478;-76
2021/11/16 07:47:54;;;;;;;77.28;32.35;;;;;;;4.91;93.75;102150.13;5047809;28;20072;-74
2021/11/16 07:50:28;;;;;;;81.20;33.60;;;;;;;4.92;93.73;102154.38;5044817;28;20028;-75
2021/11/16 07:52:54;;;;;;;83.78;33.10;;;;;;;4.90;93.77;102147.63;5041404;28;20068;-74
2021/11/16 07:55:26;;;;;;;80.50;33.55;;;;;;;4.90;93.54;102156.19;5034069;28;20524;-74
2021/11/16 07:57:53;;;;;;;88.78;35.40;;;;;;;4.98;93.86;102142.91;5045365;28;20043;-76
2021/11/16 08:00:26;;;;;;;86.35;35.53;;;;;;;4.94;93.86;102144.81;5059001;28;20107;-74
2021/11/16 08:03:00;;;;;;;;;;;;;;;4.97;93.90;102152.38;5061282;28;20090;-75
2021/11/16 08:05:36;;;;;;;81.93;33.20;;;;;;;4.97;94.00;102141.25;5041185;28;20316;-75
2021/11/16 08:10:48;;;;;;;81.65;34.42;;;;;;;5.00;94.20;102138.50;5050519;28;20059;-74
2021/11/16 08:13:19;;;;;;;96.38;36.15;;;;;;;5.02;94.45;102141.81;5058474;28;20128;-74
2021/11/16 08:15:45;;;;;;;91.68;35.97;;;;;;;5.02;94.51;102147.78;5043630;28;20036;-74
2021/11/16 08:18:14;;;;;;;102.72;38.33;;;;;;;5.05;94.58;102150.19;5062689;28;20097;-74
2021/11/16 08:20:41;;;;;;;106.20;41.17;;;;;;;5.03;94.55;102151.22;5036287;28;20035;-74
2021/11/16 08:23:08;;;;;;;113.40;40.45;;;;;;;4.97;94.47;102154.09;5043332;28;20414;-74
2021/11/16 08:25:36;;;;;;;106.75;40.53;;;;;;;4.97;94.81;102152.38;5045946;28;20077;-73
2021/11/16 08:28:04;;;;;;;113.60;40.00;;;;;;;5.01;94.03;102158.16;5061903;28;20482;-74
2021/11/16 08:30:34;;;;;;;116.00;41.38;;;;;;;4.97;93.98;102154.94;5062342;28;20078;-74
2021/11/16 08:33:01;;;;;;;109.60;41.78;;;;;;;4.97;94.36;102152.38;5042173;28;20141;-73
2021/11/16 08:35:27;;;;;;;119.05;41.63;;;;;;;4.95;94.24;102150.78;5063566;28;20025;-74
2021/11/16 08:38:01;;;;;;;113.63;40.05;;;;;;;4.95;94.21;102146.47;5029088;28;20043;-74
2021/11/16 08:40:32;;;;;;;115.55;42.53;;;;;;;4.97;94.71;102143.81;5033543;28;20020;-74
2021/11/16 08:43:02;;;;;;;115.65;42.60;;;;;;;5.00;94.82;102143.66;5049331;28;20044;-74
2021/11/16 08:45:30;;;;;;;124.05;42.60;;;;;;;5.00;94.62;102141.91;5068472;28;20453;-74
2021/11/16 08:48:21;;;;;;;113.75;39.85;;;;;;;5.03;95.12;102134.03;5063294;28;20037;-74
2021/11/16 08:50:50;;;;;;;112.72;40.70;;;;;;;5.06;95.11;102144.13;5061309;28;20127;-75
2021/11/16 08:53:26;;;;;;;106.45;41.13;;;;;;;5.07;94.78;102132.13;5044823;28;20037;-73
2021/11/16 08:55:52;;;;;;;116.38;38.90;;;;;;;5.10;95.17;102121.63;5030748;28;20474;-74
2021/11/16 08:58:19;;;;;;;111.80;41.80;;;;;;;5.08;94.70;102123.47;5063518;28;20111;-74
2021/11/16 09:00:58;;;;;;;107.28;41.03;;;;;;;5.11;95.04;102127.63;5047290;28;20025;-75
2021/11/16 09:03:31;;;;;;;114.18;40.90;;;;;;;5.11;94.94;102133.59;5054541;28;20067;-74
2021/11/16 09:06:00;;;;;;;108.13;39.65;;;;;;;5.13;95.28;102134.31;5061428;28;20033;-74
2021/11/16 09:08:31;;;;;;;128.27;42.67;;;;;;;5.16;95.41;102134.16;5043237;28;20031;-74
2021/11/16 09:10:58;;;;;;;114.05;41.40;;;;;;;5.18;94.91;102131.47;5062593;28;20028;-74
2021/11/16 09:13:27;;;;;;;113.88;42.20;;;;;;;5.19;94.75;102130.56;5043290;28;20089;-74
2021/11/16 09:16:02;;;;;;;112.53;40.70;;;;;;;5.20;93.87;102129.66;5057290;28;20032;-75
2021/11/16 09:18:39;;;;;;;111.72;40.88;;;;;;;5.17;93.55;102122.94;5049105;28;20175;-74
2021/11/16 09:21:14;;;;;;;117.05;42.90;;;;;;;5.23;93.90;102114.03;5059295;28;20482;-76
2021/11/16 09:24:07;;;;;;;120.85;44.13;;;;;;;5.21;92.96;102113.31;5046421;28;20055;-74
2021/11/16 09:29:18;;;;;;;98.82;39.30;;;;;;;5.23;93.38;102121.75;5070129;28;20052;-73
2021/11/16 09:31:57;;;;;;;99.78;37.40;;;;;;;5.25;92.37;102125.91;5079771;28;20032;-73
2021/11/16 09:34:35;;;;;;;102.88;38.92;;;;;;;5.17;92.34;102122.94;5053849;28;20032;-74
2021/11/16 09:37:12;;;;;;;103.15;38.13;;;;;;;5.22;92.22;102120.13;5068334;28;20371;-74
2021/11/16 09:39:49;;;;;;;108.85;39.80;;;;;;;5.23;93.18;102120.00;5058742;28;20039;-74
2021/11/16 09:42:36;;;;;;;110.20;40.30;;;;;;;5.24;93.12;102118.28;5062213;28;20039;-74
2021/11/16 09:45:16;;;;;;;100.88;38.10;;;;;;;5.25;92.88;102112.22;5063921;28;20040;-74
2021/11/16 09:47:43;;;;;;;100.25;37.88;;;;;;;5.30;93.29;102105.06;5068251;28;20079;-74
2021/11/16 09:50:18;;;;;;;104.60;39.22;;;;;;;5.30;92.47;102107.63;5053324;28;20027;-73
2021/11/16 09:52:53;;;;;;;96.18;36.60;;;;;;;5.32;93.10;102107.56;5045533;28;20090;-75
2021/11/16 09:55:22;;;;;;;97.80;38.45;;;;;;;5.30;93.33;102107.63;5052488;28;20032;-74
2021/11/16 09:57:51;;;;;;;103.78;38.33;;;;;;;5.35;92.89;102100.47;5071319;28;20040;-73
2021/11/16 10:00:23;;;;;;;98.03;36.53;;;;;;;5.36;92.94;102099.53;5054002;28;20090;-74
2021/11/16 10:03:02;;;;;;;93.57;37.20;;;;;;;5.38;92.50;102099.47;5047433;28;20071;-75
2021/11/16 10:05:30;;;;;;;99.68;37.38;;;;;;;5.41;92.84;102094.16;5070251;28;20025;-73
2021/11/16 10:07:59;;;;;;;100.25;36.85;;;;;;;5.42;92.71;102101.75;5056410;28;20033;-74
2021/11/16 10:10:29;;;;;;;90.50;34.60;;;;;;;5.47;91.48;102091.22;5051871;28;20115;-75
2021/11/16 10:13:23;;;;;;;91.28;36.47;;;;;;;5.46;91.83;102095.53;5057654;28;20059;-74
2021/11/16 10:15:51;;;;;;;83.63;33.65;;;;;;;5.48;92.50;102085.13;5039097;28;20049;-74
2021/11/16 10:18:19;;;;;;;88.93;34.42;;;;;;;5.52;92.63;102085.78;5044926;28;20413;-74
2021/11/16 10:20:46;;;;;;;87.95;33.78;;;;;;;5.54;92.57;102084.78;5053985;28;20021;-73
2021/11/16 10:23:16;;;;;;;91.15;34.13;;;;;;;5.57;92.13;102076.03;5068443;28;20029;-75
2021/11/16 10:25:52;;;;;;;94.28;34.70;;;;;;;5.59;92.06;102071.63;5072114;28;20033;-73
2021/11/16 10:28:18;;;;;;;88.47;33.13;;;;;;;5.57;91.93;102058.84;5061376;28;20395;-74
2021/11/16 10:30:45;;;;;;;94.15;37.35;;;;;;;5.63;91.26;102067.94;5051501;28;20273;-73
2021/11/16 10:33:17;;;;;;;88.43;34.47;;;;;;;5.62;91.99;102063.72;5032763;28;20035;-73
2021/11/16 10:35:59;;;;;;;87.65;33.15;;;;;;;5.63;91.63;102058.50;5049211;28;20039;-75
2021/11/16 10:38:41;;;;;;;88.68;35.10;;;;;;;5.81;90.08;102058.28;5043125;28;20029;-73
2021/11/16 10:41:09;;;;;;;;;;;;;;;5.72;90.40;102051.94;5051413;28;20029;-75
2021/11/16 10:43:40;;;;;;;90.63;33.67;;;;;;;5.69;90.55;102048.72;5054401;28;19954;-74
2021/11/16 10:46:07;;;;;;;82.45;33.50;;;;;;;5.71;90.22;102050.31;5041292;28;20033;-75
2021/11/16 10:48:35;;;;;;;82.43;32.47;;;;;;;5.73;90.31;102056.19;5060269;28;20391;-73
2021/11/16 10:51:07;;;;;;;75.00;30.83;;;;;;;5.75;90.25;102038.91;5067725;28;20020;-74
2021/11/16 10:53:34;;;;;;;77.63;31.60;;;;;;;5.77;89.36;102046.53;5043087;28;20047;-73
2021/11/16 10:56:02;;;;;;;82.20;30.95;;;;;;;5.78;89.63;102040.44;5048675;28;21166;-74
2021/11/16 10:58:33;;;;;;;80.93;30.38;;;;;;;5.86;89.62;102040.81;5043108;28;20043;-74
2021/11/16 11:01:05;;;;;;;80.45;31.55;;;;;;;5.88;89.58;102054.41;5048640;28;20087;-74
2021/11/16 11:03:33;;;;;;;84.07;31.58;;;;;;;6.14;87.43;102046.84;5045675;28;20086;-74
2021/11/16 11:06:00;;;;;;;82.38;31.17;;;;;;;6.00;87.31;102039.97;5044361;28;20044;-73
2021/11/16 11:08:35;;;;;;;78.88;31.77;;;;;;;5.93;88.29;102038.69;5051801;28;20387;-74
2021/11/16 11:11:03;;;;;;;78.20;31.88;;;;;;;5.91;88.66;102030.22;5049240;28;20028;-73
2021/11/16 11:13:30;;;;;;;80.10;30.92;;;;;;;5.94;89.42;102030.03;5056391;28;20494;-73
2021/11/16 11:15:57;;;;;;;77.53;32.28;;;;;;;5.96;88.65;102025.66;5052326;28;20020;-74
2021/11/16 11:18:37;;;;;;;83.80;31.85;;;;;;;5.96;88.95;102026.47;5069470;28;20048;-75
2021/11/16 11:21:09;;;;;;;77.15;30.63;;;;;;;5.93;89.03;102023.22;5060998;28;20028;-74
2021/11/16 11:23:45;;;;;;;77.78;30.65;;;;;;;5.95;89.07;102018.81;5047377;28;21111;-74
2021/11/16 11:26:28;;;;;;;76.72;30.40;;;;;;;5.96;89.29;102018.75;5065160;28;20097;-73
2021/11/16 11:29:12;;;;;;;77.63;31.37;;;;;;;6.04;88.88;102013.09;5047953;28;20747;-77
2021/11/16 11:31:37;;;;;;;76.20;29.98;;;;;;;6.06;88.88;102016.41;5048425;28;20090;-76
2021/11/16 11:34:03;;;;;;;71.05;28.70;;;;;;;6.07;89.10;102014.69;5065180;28;20028;-74
2021/11/16 11:36:28;;;;;;;81.57;30.58;;;;;;;6.18;88.34;102004.53;5064566;28;20041;-74
2021/11/16 11:38:55;;;;;;;73.75;29.45;;;;;;;6.19;87.89;102006.16;5046304;28;20063;-74